createdAt,value
2022-09-04T00:03:04.248Z,81.53
2022-09-04T00:06:11.541Z,81.67
2022-09-04T00:09:28.703Z,81.89
2022-09-04T00:12:35.221Z,82.07
2022-09-04T00:15:42.822Z,82.46
2022-09-04T00:18:47.161Z,82.51
2022-09-04T00:21:53.598Z,82.76
2022-09-04T00:25:18.330Z,82.68
2022-09-04T00:28:37.561Z,82.37
2022-09-04T00:31:44.789Z,82.65
2022-09-04T00:34:46.681Z,82.65
2022-09-04T00:38:03.767Z,82.54
2022-09-04T00:41:31.239Z,82.74
2022-09-04T00:45:02.254Z,82.73
2022-09-04T00:48:22.235Z,82.42
2022-09-04T00:51:43.473Z,82.67
2022-09-04T00:55:11.332Z,82.84
2022-09-04T00:58:31.490Z,82.86
2022-09-04T01:01:33.435Z,83.18
2022-09-04T01:04:44.075Z,82.91
2022-09-04T01:08:27.881Z,82.83
2022-09-04T01:11:29.824Z,82.98
2022-09-04T01:14:38.476Z,82.98
2022-09-04T01:18:02.520Z,83.09
2022-09-04T01:21:11.146Z,83.32
2022-09-04T01:24:44.248Z,83.37
2022-09-04T01:28:13.548Z,83.43
2022-09-04T01:32:03.613Z,83.72
2022-09-04T01:35:53.004Z,83.61
2022-09-04T01:38:59.237Z,83.72
2022-09-04T01:42:12.502Z,83.56
2022-09-04T01:45:24.555Z,83.91
2022-09-04T01:48:45.633Z,84.05
2022-09-04T01:52:14.818Z,84.35
2022-09-04T01:55:27.040Z,85.39
2022-09-04T01:58:35.506Z,85.22
2022-09-04T02:02:22.268Z,85.33
2022-09-04T02:05:36.481Z,85.37
2022-09-04T02:08:55.471Z,85.45
2022-09-04T02:12:09.293Z,85.25
2022-09-04T02:15:43.256Z,85.36
2022-09-04T02:18:48.016Z,85.31
2022-09-04T02:22:12.625Z,85.26
2022-09-04T02:25:26.660Z,85.84
2022-09-04T02:28:50.312Z,85.66
2022-09-04T02:32:05.291Z,85.35
2022-09-04T02:35:27.332Z,85.71
2022-09-04T02:38:37.349Z,86.05
2022-09-04T02:42:04.528Z,85.96
2022-09-04T02:45:28.037Z,85.91
2022-09-04T02:48:45.118Z,86.04
2022-09-04T02:52:05.656Z,85.80
2022-09-04T02:55:44.788Z,85.76
2022-09-04T02:59:10.082Z,85.88
2022-09-04T03:02:21.342Z,86.24
2022-09-04T03:05:26.655Z,86.17
2022-09-04T03:08:43.679Z,86.31
2022-09-04T03:11:59.740Z,86.37
2022-09-04T03:15:04.835Z,86.24
2022-09-04T03:18:21.287Z,86.52
2022-09-04T03:21:35.569Z,86.45
2022-09-04T03:24:56.151Z,86.58
2022-09-04T03:27:57.927Z,86.82
2022-09-04T03:31:09.938Z,86.75
2022-09-04T03:34:34.669Z,86.58
2022-09-04T03:38:13.035Z,86.58
2022-09-04T03:41:36.331Z,86.86
2022-09-04T03:45:04.000Z,86.74
2022-09-04T03:48:19.041Z,87.22
2022-09-04T03:51:47.339Z,87.18
2022-09-04T03:55:09.865Z,87.51
2022-09-04T03:58:22.827Z,87.40
2022-09-04T04:01:25.258Z,87.24
2022-09-04T04:05:00.385Z,87.44
2022-09-04T04:08:37.815Z,87.21
2022-09-04T04:12:13.598Z,87.33
2022-09-04T04:15:37.229Z,87.75
2022-09-04T04:18:56.127Z,87.90
2022-09-04T04:22:26.285Z,87.94
2022-09-04T04:25:27.966Z,87.88
2022-09-04T04:28:42.215Z,87.84
2022-09-04T04:32:09.590Z,87.78
2022-09-04T04:35:30.538Z,87.86
2022-09-04T04:38:47.794Z,87.85
2022-09-04T04:42:06.277Z,88.11
2022-09-04T04:45:31.034Z,88.19
2022-09-04T04:49:07.467Z,88.71
2022-09-04T04:52:19.258Z,88.62
2022-09-04T04:55:38.668Z,88.62
2022-09-04T04:59:08.516Z,88.63
2022-09-04T05:02:31.169Z,89.04
2022-09-04T05:05:55.310Z,89.12
2022-09-04T05:09:06.092Z,89.35
2022-09-04T05:12:17.525Z,88.99
2022-09-04T05:15:25.137Z,89.20
2022-09-04T05:19:04.733Z,89.59
2022-09-04T05:22:34.680Z,90.04
2022-09-04T05:25:58.781Z,90.60
2022-09-04T05:29:51.569Z,90.00
2022-09-04T05:32:59.106Z,90.00
2022-09-04T05:36:16.748Z,90.19
2022-09-04T05:39:33.051Z,89.57
2022-09-04T05:43:11.148Z,89.03
2022-09-04T05:46:37.895Z,87.58
2022-09-04T05:50:37.086Z,87.55
2022-09-04T05:54:13.285Z,88.06
2022-09-04T05:57:17.852Z,87.93
2022-09-04T06:00:20.170Z,86.89
2022-09-04T06:03:45.995Z,86.80
2022-09-04T06:06:50.696Z,86.09
2022-09-04T06:09:58.905Z,85.69
2022-09-04T06:13:25.508Z,85.07
2022-09-04T06:16:47.231Z,85.11
2022-09-04T06:20:04.823Z,84.43
2022-09-04T06:23:24.843Z,84.89
2022-09-04T06:26:40.711Z,85.38
2022-09-04T06:30:00.670Z,85.34
2022-09-04T06:33:17.330Z,85.44
2022-09-04T06:36:53.211Z,86.36
2022-09-04T06:40:03.219Z,84.92
2022-09-04T06:43:11.264Z,84.67
2022-09-04T06:46:19.264Z,81.89
2022-09-04T06:49:36.130Z,83.42
2022-09-04T06:52:53.220Z,83.50
2022-09-04T06:56:04.706Z,81.76
2022-09-04T06:59:21.787Z,81.06
2022-09-04T07:02:28.980Z,80.03
2022-09-04T07:05:54.581Z,80.40
2022-09-04T07:09:11.589Z,79.52
2022-09-04T07:12:22.510Z,79.53
2022-09-04T07:15:48.754Z,79.17
2022-09-04T07:19:21.687Z,79.08
2022-09-04T07:22:45.587Z,79.02
2022-09-04T07:26:15.654Z,79.34
2022-09-04T07:29:35.129Z,79.64
2022-09-04T07:32:43.409Z,79.67
2022-09-04T07:35:59.030Z,79.62
2022-09-04T07:39:44.025Z,79.84
2022-09-04T07:42:59.899Z,80.10
2022-09-04T07:46:18.743Z,80.29
2022-09-04T07:49:37.692Z,80.57
2022-09-04T07:52:54.602Z,80.62
2022-09-04T07:56:35.438Z,80.80
2022-09-04T07:59:59.482Z,81.03
2022-09-04T08:03:04.459Z,81.32
2022-09-04T08:06:30.149Z,81.38
2022-09-04T08:09:37.042Z,81.22
2022-09-04T08:13:08.941Z,81.70
2022-09-04T08:16:20.474Z,81.91
2022-09-04T08:19:50.101Z,82.00
2022-09-04T08:22:55.641Z,82.25
2022-09-04T08:26:14.663Z,82.25
2022-09-04T08:29:32.652Z,82.17
2022-09-04T08:32:55.349Z,82.21
2022-09-04T08:35:59.882Z,82.04
2022-09-04T08:39:09.604Z,81.77
2022-09-04T08:42:54.328Z,81.67
2022-09-04T08:46:28.791Z,81.62
2022-09-04T08:49:56.894Z,81.80
2022-09-04T08:53:13.735Z,81.59
2022-09-04T08:56:22.146Z,81.53
2022-09-04T08:59:51.975Z,81.28
2022-09-04T09:03:11.454Z,80.89
2022-09-04T09:06:13.623Z,79.95
2022-09-04T09:09:50.702Z,78.75
2022-09-04T09:13:16.801Z,79.15
2022-09-04T09:16:23.728Z,80.13
2022-09-04T09:19:40.910Z,79.33
2022-09-04T09:23:21.147Z,78.75
2022-09-04T09:26:29.280Z,78.62
2022-09-04T09:29:38.795Z,78.45
2022-09-04T09:33:35.341Z,77.03
2022-09-04T09:37:02.569Z,77.15
2022-09-04T09:40:16.989Z,75.66
2022-09-04T09:43:30.718Z,75.31
2022-09-04T09:46:58.369Z,74.84
2022-09-04T09:50:15.173Z,74.69
2022-09-04T09:53:46.448Z,74.14
2022-09-04T09:57:20.245Z,74.08
2022-09-04T10:00:55.218Z,74.15
2022-09-04T10:04:19.010Z,72.39
2022-09-04T10:07:42.635Z,73.12
2022-09-04T10:10:59.373Z,73.96
2022-09-04T10:14:39.182Z,73.67
2022-09-04T10:18:07.544Z,73.92
2022-09-04T10:21:46.468Z,73.54
2022-09-04T10:25:09.825Z,72.69
2022-09-04T10:28:34.628Z,72.44
2022-09-04T10:31:48.685Z,70.94
2022-09-04T10:35:25.484Z,71.07
2022-09-04T10:38:35.874Z,70.57
2022-09-04T10:42:11.796Z,68.15
2022-09-04T10:45:27.110Z,66.98
2022-09-04T10:48:48.263Z,66.38
2022-09-04T10:52:41.787Z,66.62
2022-09-04T10:55:47.955Z,66.85
2022-09-04T10:59:01.261Z,66.52
2022-09-04T11:02:41.146Z,67.05
2022-09-04T11:05:52.458Z,67.46
2022-09-04T11:09:11.488Z,65.88
2022-09-04T11:12:38.203Z,65.44
2022-09-04T11:16:16.923Z,64.06
2022-09-04T11:19:34.476Z,63.24
2022-09-04T11:23:01.293Z,63.28
2022-09-04T11:26:08.327Z,63.60
2022-09-04T11:29:22.526Z,62.50
2022-09-04T11:32:52.379Z,61.25
2022-09-04T11:36:19.186Z,61.49
2022-09-04T11:39:39.274Z,60.10
2022-09-04T11:42:50.336Z,59.73
2022-09-04T11:46:05.651Z,58.89
2022-09-04T11:49:28.257Z,60.11
2022-09-04T11:52:47.238Z,60.80
2022-09-04T11:56:14.008Z,59.27
2022-09-04T11:59:40.923Z,59.62
2022-09-04T12:03:04.586Z,58.36
2022-09-04T12:06:13.774Z,58.68
2022-09-04T12:09:36.293Z,57.84
2022-09-04T12:12:47.082Z,57.52
2022-09-04T12:16:07.293Z,57.32
2022-09-04T12:19:50.476Z,57.70
2022-09-04T12:23:14.154Z,57.76
2022-09-04T12:26:51.120Z,57.93
2022-09-04T12:30:15.101Z,57.71
2022-09-04T12:33:35.415Z,58.06
2022-09-04T12:37:02.346Z,58.42
2022-09-04T12:40:29.383Z,58.12
2022-09-04T12:43:41.882Z,57.78
2022-09-04T12:46:50.366Z,57.02
2022-09-04T12:50:16.216Z,57.40
2022-09-04T12:53:27.658Z,57.19
2022-09-04T12:56:32.216Z,58.02
2022-09-04T12:59:49.710Z,58.69
2022-09-04T13:03:17.494Z,57.77
2022-09-04T13:06:48.225Z,56.60
2022-09-04T13:10:04.106Z,56.63
2022-09-04T13:13:08.516Z,56.05
2022-09-04T13:16:27.552Z,56.62
2022-09-04T13:19:50.095Z,56.62
2022-09-04T13:23:17.758Z,56.78
2022-09-04T13:26:44.191Z,57.43
2022-09-04T13:30:02.845Z,56.88
2022-09-04T13:33:12.411Z,56.34
2022-09-04T13:36:24.831Z,55.51
2022-09-04T13:39:39.074Z,55.23
2022-09-04T13:42:54.426Z,55.11
2022-09-04T13:46:03.382Z,55.76
2022-09-04T13:49:16.470Z,56.49
2022-09-04T13:52:24.563Z,56.65
2022-09-04T13:55:38.927Z,56.62
2022-09-04T13:58:48.607Z,56.53
2022-09-04T14:01:54.888Z,56.51
2022-09-04T14:05:14.355Z,56.32
2022-09-04T14:08:17.918Z,56.62
2022-09-04T14:11:50.861Z,56.90
2022-09-04T14:15:05.703Z,57.51
2022-09-04T14:18:29.704Z,56.93
2022-09-04T14:21:47.430Z,57.20
2022-09-04T14:25:01.328Z,57.06
2022-09-04T14:28:20.762Z,57.43
2022-09-04T14:31:38.060Z,57.02
2022-09-04T14:34:57.286Z,57.05
2022-09-04T14:38:19.333Z,56.82
2022-09-04T14:41:36.143Z,56.94
2022-09-04T14:44:56.641Z,56.69
2022-09-04T14:48:03.691Z,57.04
2022-09-04T14:51:35.995Z,57.62
2022-09-04T14:54:40.264Z,57.93
2022-09-04T14:57:59.532Z,58.12
2022-09-04T15:01:07.205Z,58.34
2022-09-04T15:04:22.775Z,58.45
2022-09-04T15:07:49.663Z,58.49
2022-09-04T15:10:53.883Z,58.34
2022-09-04T15:14:05.273Z,58.08
2022-09-04T15:17:14.802Z,58.63
2022-09-04T15:20:22.713Z,58.85
2022-09-04T15:23:34.217Z,59.01
2022-09-04T15:26:46.266Z,59.04
2022-09-04T15:29:48.539Z,59.14
2022-09-04T15:33:05.582Z,59.09
2022-09-04T15:36:10.984Z,59.39
2022-09-04T15:39:25.710Z,59.47
2022-09-04T15:42:53.784Z,59.51
2022-09-04T15:46:03.634Z,59.51
2022-09-04T15:49:36.718Z,59.53
2022-09-04T15:52:45.090Z,59.64
2022-09-04T15:55:48.573Z,59.68
2022-09-04T15:59:12.237Z,59.93
2022-09-04T16:02:25.275Z,60.13
2022-09-04T16:05:59.842Z,60.35
2022-09-04T16:09:09.833Z,60.51
2022-09-04T16:12:18.054Z,61.24
2022-09-04T16:15:37.433Z,61.84
2022-09-04T16:18:43.679Z,62.59
2022-09-04T16:21:58.502Z,63.01
2022-09-04T16:25:10.403Z,63.59
2022-09-04T16:28:22.805Z,64.18
2022-09-04T16:31:34.927Z,64.74
2022-09-04T16:34:43.673Z,65.23
2022-09-04T16:37:52.826Z,65.43
2022-09-04T16:41:00.390Z,65.48
2022-09-04T16:44:15.180Z,65.75
2022-09-04T16:47:23.696Z,65.97
2022-09-04T16:50:27.454Z,66.19
2022-09-04T16:53:29.416Z,66.47
2022-09-04T16:56:45.611Z,66.81
2022-09-04T16:59:53.363Z,67.11
2022-09-04T17:03:00.790Z,67.32
2022-09-04T17:06:09.366Z,67.47
2022-09-04T17:09:54.697Z,67.72
2022-09-04T17:13:01.552Z,67.98
2022-09-04T17:16:09.675Z,68.14
2022-09-04T17:19:14.070Z,68.50
2022-09-04T17:28:55.846Z,68.67
2022-09-04T17:29:04.611Z,68.90
2022-09-04T17:30:02.352Z,69.19
2022-09-04T17:38:26.950Z,69.56
2022-09-04T17:40:53.994Z,70.20
2022-09-04T17:40:54.608Z,69.82
2022-09-04T17:44:02.271Z,70.46
2022-09-04T17:47:41.602Z,70.81
2022-09-04T17:50:52.131Z,70.92
2022-09-04T17:53:57.441Z,71.06
2022-09-04T17:57:14.220Z,71.32
2022-09-04T18:00:25.000Z,71.74
2022-09-04T18:03:41.258Z,71.93
2022-09-04T18:08:07.865Z,72.10
2022-09-04T18:11:13.927Z,72.36
2022-09-04T18:14:32.002Z,72.45
2022-09-04T18:17:47.924Z,72.76
2022-09-04T18:20:55.421Z,72.89
2022-09-04T18:23:59.804Z,72.94
2022-09-04T18:27:08.481Z,73.10
2022-09-04T18:34:48.805Z,73.20
2022-09-04T18:37:26.560Z,73.33
2022-09-04T18:37:47.425Z,73.69
2022-09-04T18:43:01.993Z,73.67
2022-09-04T18:50:21.097Z,73.93
2022-09-04T18:50:29.499Z,74.50
2022-09-04T18:51:31.880Z,74.90
2022-09-04T18:55:08.802Z,74.87
2022-09-04T18:58:10.503Z,75.19
2022-09-04T19:01:26.732Z,75.28
2022-09-04T19:04:38.256Z,75.39
2022-09-04T19:07:48.170Z,75.65
2022-09-04T19:10:54.158Z,75.83
2022-09-04T19:14:10.876Z,75.88
2022-09-04T19:17:27.211Z,76.06
2022-09-04T19:20:37.635Z,76.06
2022-09-04T19:24:15.594Z,76.11
2022-09-04T19:27:40.283Z,76.27
2022-09-04T19:30:54.125Z,76.42
2022-09-04T19:34:42.480Z,76.45
2022-09-04T19:40:24.726Z,76.58
2022-09-04T19:46:02.151Z,76.57
2022-09-04T19:46:07.454Z,76.70
2022-09-04T19:48:21.541Z,76.85
2022-09-04T19:53:24.359Z,76.88
2022-09-04T19:55:24.947Z,76.92
2022-09-04T19:58:45.906Z,76.95
2022-09-04T20:01:51.131Z,77.17
2022-09-04T20:04:58.313Z,77.34
2022-09-04T20:08:18.782Z,77.39
2022-09-04T20:11:51.538Z,77.52
2022-09-04T20:14:58.853Z,77.45
2022-09-04T20:18:09.817Z,77.64
2022-09-04T20:21:20.279Z,77.91
2022-09-04T20:25:01.448Z,78.16
2022-09-04T20:28:20.460Z,78.38
2022-09-04T20:31:35.370Z,78.58
2022-09-04T20:34:43.629Z,78.64
2022-09-04T20:37:53.859Z,78.65
2022-09-04T20:41:20.744Z,78.62
2022-09-04T20:44:55.270Z,78.75
2022-09-04T20:52:51.289Z,79.19
2022-09-04T20:52:57.775Z,79.32
2022-09-04T20:55:33.861Z,79.48
2022-09-04T21:03:07.646Z,79.42
2022-09-04T21:03:23.237Z,79.48
2022-09-04T21:06:10.440Z,79.68
2022-09-04T21:09:30.781Z,79.60
2022-09-04T21:12:37.925Z,79.61
2022-09-04T21:15:45.891Z,79.70
2022-09-04T21:19:27.791Z,79.82
2022-09-04T21:22:36.024Z,79.85
2022-09-04T21:25:51.646Z,80.05
2022-09-04T21:29:14.629Z,80.12
2022-09-04T21:32:29.219Z,80.21
2022-09-04T21:35:36.172Z,80.17
2022-09-04T21:39:09.414Z,80.37
2022-09-04T21:42:42.251Z,80.58
2022-09-04T21:46:13.053Z,80.92
2022-09-04T21:49:31.962Z,80.91
2022-09-04T21:53:16.909Z,81.11
2022-09-04T21:57:13.498Z,81.05
2022-09-04T22:02:41.529Z,80.98
2022-09-04T22:03:33.974Z,81.10
2022-09-04T22:09:00.223Z,81.01
2022-09-04T22:13:34.893Z,81.28
2022-09-04T22:14:03.127Z,81.26
2022-09-04T22:17:05.329Z,81.33
2022-09-04T22:20:29.706Z,81.25
2022-09-04T22:24:15.211Z,81.22
2022-09-04T22:28:04.548Z,81.30
2022-09-04T22:31:15.308Z,81.38
2022-09-04T22:34:38.687Z,81.52
2022-09-04T22:38:17.787Z,81.29
2022-09-04T22:41:41.643Z,81.44
2022-09-04T22:44:57.175Z,81.73
2022-09-04T22:49:12.939Z,81.86
2022-09-04T22:52:26.955Z,81.82
2022-09-04T22:56:00.639Z,81.95
2022-09-04T22:59:44.121Z,82.20
2022-09-04T23:03:12.030Z,82.25
2022-09-04T23:11:42.026Z,81.93
2022-09-04T23:13:50.736Z,82.15
2022-09-04T23:14:18.838Z,82.19
2022-09-04T23:17:30.340Z,82.39
2022-09-04T23:26:33.254Z,82.38
2022-09-04T23:26:53.142Z,82.76
2022-09-04T23:28:30.686Z,82.84
2022-09-04T23:32:09.626Z,82.78
2022-09-04T23:35:53.575Z,83.11
2022-09-04T23:39:37.128Z,83.55
2022-09-04T23:43:14.059Z,83.51
2022-09-04T23:46:47.983Z,83.34
2022-09-04T23:50:31.384Z,83.95
2022-09-04T23:53:55.741Z,84.21
2022-09-04T23:57:27.270Z,84.44
